Fortierville, Canada
Current Conditions -  °F | °C
As of 7:00 PM on Friday 28 Nov 2014 (Local Time) from CYRQ Reporting Station
Overcast Overcast  
Wind Chill: 21°   Ceiling: 4400
Heat Index: 21°   Visibility: 9mi
Dew Point: 10°   Wind: 3mph
Humidity: 63%   Direction: 330°NNW
Pressure: 30.13"   Gusts: NA
Location:  46.48°N, 72.03°W
Report Text: CYRQ 290000Z AUTO 33003KT 9SM OVC044 M06/M12 A3013 RMK SLP208
Loading
Personal Weather Stations






























Interactive Weather Map New forecast layout! Learn more

10-Day Weather Forecast

Advertisements
Track Severe Weather on mobile